Main page
Satellite images 10-day forecastsClimateMarine weather Cyclones Lightning AirportsFAQ Newsletter About
Weather : Europe Africa North America South America Asia Australia-Oceania Others
Languages Contact

Tunis, Tunisia

Tunis–Carthage International Airport

latitude: 36-50N, longitude: 010-14E, elevation: 3 m


METAR: DTTA 290630Z 19004KT 170V240 CAVOK 28/18 Q1012 NOSIG
TAF: DTTA 290527Z 2906/3006 VRB03KT CAVOK BECMG 2907/2909 35008KT

Time: 07:48 (06:48 UTC)

Current weather observation

The report was made 18 minutes ago, at 06:30 UTC
Wind 4 kt from the South, varying between South and West/Southwest
Temperature 28°C
Humidity 55%
Pressure 1012 hPa
Visibility 10 km or more
no clouds below 1500 m and no cumulonimbus

Change units

Forecast

The report was made 1 hour and 21 minutes ago, at 05:27 UTC
Forecast valid from 29 at 06 UTC to 30 at 06 UTC
Wind 3 kt from variable directions
Visibility 10 km or more
no clouds below 1500 m and no cumulonimbus
Becoming
from 29 at 07 UTC to 29 at 09 UTC
Wind 8 kt from the North
The information on this site is subject to a disclaimer
Weather : Europe Africa North America South America Asia Australia-Oceania Others
Satellite images 10-day forecastsClimateMarine weather Cyclones Lightning AirportsFAQ Languages Contact Newsletter About